createdAt,value
2018-12-24T00:02:02.781Z,7.90
2018-12-24T00:04:44.105Z,7.80
2018-12-24T00:07:25.080Z,7.80
2018-12-24T00:10:06.019Z,7.80
2018-12-24T00:12:46.913Z,7.70
2018-12-24T00:15:27.858Z,7.70
2018-12-24T00:18:09.079Z,7.80
2018-12-24T00:20:50.133Z,7.80
2018-12-24T00:23:31.035Z,7.80
2018-12-24T00:26:11.843Z,7.80
2018-12-24T00:28:53.245Z,7.80
2018-12-24T00:31:34.118Z,7.80
2018-12-24T00:34:15.256Z,7.80
2018-12-24T00:36:56.363Z,7.80
2018-12-24T00:39:37.249Z,7.70
2018-12-24T00:42:18.771Z,7.70
2018-12-24T00:44:59.807Z,7.80
2018-12-24T00:47:40.716Z,7.80
2018-12-24T00:50:21.222Z,7.80
2018-12-24T00:53:02.275Z,7.90
2018-12-24T00:55:43.624Z,7.90
2018-12-24T00:58:24.236Z,7.90
2018-12-24T01:01:04.947Z,7.80
2018-12-24T01:03:47.200Z,7.80
2018-12-24T01:06:27.883Z,7.80
2018-12-24T01:09:08.623Z,7.80
2018-12-24T01:11:49.322Z,7.80
2018-12-24T01:14:29.945Z,7.80
2018-12-24T01:17:10.910Z,7.80
2018-12-24T01:19:51.775Z,7.80
2018-12-24T01:22:33.096Z,7.80
2018-12-24T01:25:02.300Z,7.70
2018-12-24T01:27:50.805Z,7.70
2018-12-24T01:30:58.315Z,7.60
2018-12-24T01:33:46.923Z,7.60
2018-12-24T01:36:35.354Z,7.60
2018-12-24T01:39:23.679Z,7.60
2018-12-24T01:42:12.331Z,7.60
2018-12-24T01:45:00.690Z,7.70
2018-12-24T01:47:41.525Z,7.70
2018-12-24T01:50:22.103Z,7.60
2018-12-24T01:53:03.020Z,7.60
2018-12-24T01:55:44.031Z,7.60
2018-12-24T01:58:25.218Z,7.60
2018-12-24T02:01:06.335Z,7.60
2018-12-24T02:03:46.939Z,7.60
2018-12-24T02:06:27.985Z,7.60
2018-12-24T02:09:08.779Z,7.60
2018-12-24T02:11:50.013Z,7.60
2018-12-24T02:14:30.623Z,7.60
2018-12-24T02:17:11.358Z,7.60
2018-12-24T02:19:52.494Z,7.60
2018-12-24T02:22:33.407Z,7.60
2018-12-24T02:25:14.398Z,7.60
2018-12-24T02:27:55.992Z,7.50
2018-12-24T02:30:37.426Z,7.50
2018-12-24T02:33:18.158Z,7.50
2018-12-24T02:35:58.711Z,7.50
2018-12-24T02:38:39.625Z,7.50
2018-12-24T02:41:20.563Z,7.50
2018-12-24T02:44:01.715Z,7.50
2018-12-24T02:46:42.666Z,7.50
2018-12-24T02:49:23.653Z,7.50
2018-12-24T02:52:04.454Z,7.50
2018-12-24T02:54:45.238Z,7.50
2018-12-24T02:57:25.996Z,7.50
2018-12-24T03:00:07.006Z,7.50
2018-12-24T03:02:48.030Z,7.50
2018-12-24T03:05:29.711Z,7.50
2018-12-24T03:08:10.363Z,7.40
2018-12-24T03:10:51.409Z,7.40
2018-12-24T03:13:32.171Z,7.40
2018-12-24T03:16:12.949Z,7.30
2018-12-24T03:18:54.053Z,7.30
2018-12-24T03:21:23.266Z,7.30
2018-12-24T03:24:11.695Z,7.20
2018-12-24T03:27:00.034Z,7.30
2018-12-24T03:29:48.676Z,7.20
2018-12-24T03:32:36.988Z,7.20
2018-12-24T03:35:25.386Z,7.30
2018-12-24T03:38:13.712Z,7.20
2018-12-24T03:41:02.046Z,7.20
2018-12-24T03:43:50.442Z,7.10
2018-12-24T03:46:31.777Z,7.10
2018-12-24T03:49:12.379Z,7.00
2018-12-24T03:52:56.941Z,7.00
2018-12-24T03:55:37.460Z,7.00
2018-12-24T03:58:18.623Z,7.00
2018-12-24T04:00:58.987Z,6.90
2018-12-24T04:03:40.227Z,6.90
2018-12-24T04:06:20.767Z,6.90
2018-12-24T04:09:01.375Z,6.90
2018-12-24T04:11:41.955Z,6.90
2018-12-24T04:14:22.842Z,6.90
2018-12-24T04:17:03.661Z,6.90
2018-12-24T04:19:44.332Z,6.80
2018-12-24T04:22:24.810Z,6.70
2018-12-24T04:25:05.606Z,6.70
2018-12-24T04:27:46.181Z,6.60
2018-12-24T04:30:26.814Z,6.60
2018-12-24T04:33:07.472Z,6.60
2018-12-24T04:35:48.016Z,6.70
2018-12-24T04:38:28.723Z,6.70
2018-12-24T04:41:09.466Z,6.70
2018-12-24T04:43:50.272Z,6.70
2018-12-24T04:46:30.898Z,6.60
2018-12-24T04:49:12.061Z,6.70
2018-12-24T04:51:52.874Z,6.70
2018-12-24T04:54:33.344Z,6.60
2018-12-24T04:57:17.004Z,6.70
2018-12-24T04:59:58.162Z,6.60
2018-12-24T05:02:38.843Z,6.50
2018-12-24T05:05:19.462Z,6.50
2018-12-24T05:07:59.817Z,6.50
2018-12-24T05:10:40.923Z,6.50
2018-12-24T05:13:21.530Z,6.40
2018-12-24T05:16:02.161Z,6.40
2018-12-24T05:18:42.784Z,6.40
2018-12-24T05:21:23.586Z,6.40
2018-12-24T05:24:04.389Z,6.40
2018-12-24T05:29:27.192Z,6.40
2018-12-24T05:32:07.791Z,6.30
2018-12-24T05:34:48.450Z,6.20
2018-12-24T05:37:29.088Z,6.10
2018-12-24T05:40:09.490Z,6.10
2018-12-24T05:42:50.360Z,6.10
2018-12-24T05:45:30.990Z,6.10
2018-12-24T05:48:11.526Z,6.10
2018-12-24T05:50:52.420Z,6.10
2018-12-24T05:53:32.775Z,6.00
2018-12-24T05:56:13.516Z,6.10
2018-12-24T05:58:54.198Z,6.10
2018-12-24T06:01:35.083Z,6.00
2018-12-24T06:04:15.863Z,6.10
2018-12-24T06:06:56.266Z,6.00
2018-12-24T06:09:36.890Z,5.90
2018-12-24T06:12:17.793Z,6.00
2018-12-24T06:14:58.611Z,6.00
2018-12-24T06:17:39.310Z,6.00
2018-12-24T06:20:19.983Z,6.00
2018-12-24T06:25:42.798Z,6.10
2018-12-24T06:28:24.018Z,6.10
2018-12-24T06:31:04.358Z,6.10
2018-12-24T06:33:45.298Z,6.00
2018-12-24T06:36:26.040Z,6.00
2018-12-24T06:39:07.046Z,6.00
2018-12-24T06:41:47.960Z,6.00
2018-12-24T06:44:28.829Z,6.00
2018-12-24T06:47:09.523Z,6.00
2018-12-24T06:49:50.211Z,6.00
2018-12-24T06:52:30.858Z,6.00
2018-12-24T06:55:11.495Z,6.10
2018-12-24T06:57:52.520Z,6.10
2018-12-24T07:00:36.171Z,6.10
2018-12-24T07:03:16.707Z,6.10
2018-12-24T07:05:58.102Z,6.00
2018-12-24T07:08:39.379Z,6.10
2018-12-24T07:11:19.978Z,6.00
2018-12-24T07:16:44.809Z,6.00
2018-12-24T07:19:25.568Z,5.90
2018-12-24T07:22:06.475Z,5.90
2018-12-24T07:27:29.345Z,6.00
2018-12-24T07:30:10.603Z,6.00
2018-12-24T07:32:51.470Z,5.90
2018-12-24T07:35:32.174Z,5.90
2018-12-24T07:38:13.430Z,5.90
2018-12-24T07:40:53.967Z,5.90
2018-12-24T07:43:35.013Z,5.90
2018-12-24T07:46:16.389Z,5.80
2018-12-24T07:48:45.234Z,5.80
2018-12-24T07:51:25.686Z,5.70
2018-12-24T07:54:06.295Z,5.70
2018-12-24T07:56:46.892Z,5.60
2018-12-24T07:59:27.677Z,5.70
2018-12-24T08:02:08.491Z,5.70
2018-12-24T08:04:49.020Z,5.60
2018-12-24T08:07:29.731Z,5.60
2018-12-24T08:10:10.640Z,5.60
2018-12-24T08:12:51.392Z,5.50
2018-12-24T08:15:31.999Z,5.50
2018-12-24T08:18:12.378Z,5.50
2018-12-24T08:20:53.232Z,5.50
2018-12-24T08:23:34.387Z,5.50
2018-12-24T08:26:15.321Z,5.50
2018-12-24T08:28:56.020Z,5.40
2018-12-24T08:31:36.900Z,5.40
2018-12-24T08:34:17.329Z,5.40
2018-12-24T08:36:57.882Z,5.30
2018-12-24T08:39:38.537Z,5.30
2018-12-24T08:42:19.374Z,5.30
2018-12-24T08:45:00.288Z,5.30
2018-12-24T08:47:41.349Z,5.30
2018-12-24T08:50:22.256Z,5.30
2018-12-24T08:53:02.947Z,5.20
2018-12-24T08:55:43.687Z,5.20
2018-12-24T08:58:24.363Z,5.20
2018-12-24T09:01:04.895Z,5.20
2018-12-24T09:03:45.602Z,5.20
2018-12-24T09:06:26.896Z,5.20
2018-12-24T09:09:07.718Z,5.40
2018-12-24T09:11:48.321Z,5.70
2018-12-24T09:14:29.333Z,6.00
2018-12-24T09:17:10.090Z,6.30
2018-12-24T09:19:50.938Z,6.60
2018-12-24T09:22:31.499Z,6.70
2018-12-24T09:25:12.288Z,6.90
2018-12-24T09:30:35.336Z,7.20
2018-12-24T09:33:16.603Z,7.30
2018-12-24T09:35:57.382Z,7.40
2018-12-24T09:38:38.147Z,7.50
2018-12-24T09:41:18.768Z,7.50
2018-12-24T09:43:59.204Z,7.60
2018-12-24T09:46:39.851Z,7.70
2018-12-24T09:49:26.836Z,7.70
2018-12-24T09:52:08.027Z,7.70
2018-12-24T09:57:30.718Z,7.70
2018-12-24T10:00:11.394Z,7.90
2018-12-24T10:02:55.171Z,8.30
2018-12-24T10:05:35.495Z,8.50
2018-12-24T10:08:16.151Z,8.60
2018-12-24T10:10:57.075Z,8.60
2018-12-24T10:13:38.187Z,8.60
2018-12-24T10:16:20.563Z,8.50
2018-12-24T10:19:01.065Z,8.50
2018-12-24T10:21:41.826Z,8.40
2018-12-24T10:24:22.406Z,8.40
2018-12-24T10:27:03.028Z,8.40
2018-12-24T10:29:43.520Z,8.30
2018-12-24T10:32:24.374Z,8.30
2018-12-24T10:35:04.806Z,8.40
2018-12-24T10:37:45.424Z,8.40
2018-12-24T10:40:26.530Z,8.30
2018-12-24T10:43:07.911Z,8.40
2018-12-24T10:45:49.158Z,8.40
2018-12-24T10:48:29.730Z,8.40
2018-12-24T10:53:52.351Z,8.40
2018-12-24T10:56:32.684Z,8.30
2018-12-24T10:59:13.428Z,8.30
2018-12-24T11:01:54.714Z,8.30
2018-12-24T11:04:35.230Z,8.20
2018-12-24T11:07:16.286Z,8.10
2018-12-24T11:09:57.127Z,8.00
2018-12-24T11:12:37.975Z,8.00
2018-12-24T11:15:25.046Z,8.00
2018-12-24T11:18:01.778Z,8.00
2018-12-24T11:20:42.721Z,8.00
2018-12-24T11:23:11.507Z,8.10
2018-12-24T11:26:00.434Z,8.10
2018-12-24T11:28:48.621Z,8.10
2018-12-24T11:31:36.848Z,8.10
2018-12-24T11:34:24.943Z,7.90
2018-12-24T11:37:13.102Z,7.60
2018-12-24T11:40:01.292Z,7.40
2018-12-24T11:42:49.475Z,7.20
2018-12-24T11:45:37.643Z,7.10
2018-12-24T11:48:25.783Z,7.10
2018-12-24T11:53:53.887Z,6.90
2018-12-24T12:02:09.919Z,6.70
2018-12-24T12:10:24.470Z,6.60
2018-12-24T12:13:05.908Z,6.70
2018-12-24T12:21:23.845Z,6.60
2018-12-24T12:24:04.174Z,6.60
2018-12-24T12:26:48.036Z,6.50
2018-12-24T12:29:29.332Z,6.50
2018-12-24T12:32:09.861Z,6.50
2018-12-24T12:37:36.190Z,6.50
2018-12-24T12:43:01.396Z,6.50
2018-12-24T12:45:41.812Z,6.50
2018-12-24T12:48:22.604Z,6.50
2018-12-24T12:53:53.112Z,6.50
2018-12-24T12:56:34.258Z,6.60
2018-12-24T12:59:14.770Z,6.60
2018-12-24T13:01:55.874Z,6.60
2018-12-24T13:04:36.503Z,6.60
2018-12-24T13:07:16.928Z,6.70
2018-12-24T13:09:57.360Z,6.80
2018-12-24T13:12:38.234Z,6.80
2018-12-24T13:15:18.862Z,6.80
2018-12-24T13:17:59.514Z,6.80
2018-12-24T13:20:40.576Z,6.80
2018-12-24T13:23:21.438Z,6.80
2018-12-24T13:26:02.731Z,6.80
2018-12-24T13:28:43.607Z,6.70
2018-12-24T13:31:24.086Z,6.70
2018-12-24T13:34:04.899Z,6.60
2018-12-24T13:36:45.787Z,6.60
2018-12-24T13:39:26.400Z,6.70
2018-12-24T13:42:06.796Z,6.70
2018-12-24T13:44:47.309Z,6.70
2018-12-24T13:47:28.172Z,6.80
2018-12-24T13:50:08.602Z,6.90
2018-12-24T13:52:49.320Z,7.00
2018-12-24T13:55:29.888Z,7.10
2018-12-24T13:58:10.423Z,7.20
2018-12-24T14:00:51.137Z,7.20
2018-12-24T14:03:31.464Z,7.10
2018-12-24T14:06:12.091Z,7.10
2018-12-24T14:08:52.651Z,7.10
2018-12-24T14:11:34.599Z,7.10
2018-12-24T14:14:16.008Z,7.10
2018-12-24T14:16:59.711Z,7.00
2018-12-24T14:19:40.112Z,6.90
2018-12-24T14:22:20.922Z,6.90
2018-12-24T14:25:01.624Z,6.90
2018-12-24T14:27:42.681Z,6.80
2018-12-24T14:30:12.243Z,6.70
2018-12-24T14:33:00.282Z,6.80
2018-12-24T14:35:48.390Z,6.80
2018-12-24T14:38:36.431Z,6.80
2018-12-24T14:41:24.612Z,6.80
2018-12-24T14:44:13.068Z,6.70
2018-12-24T14:47:01.140Z,6.70
2018-12-24T14:49:42.230Z,6.80
2018-12-24T14:52:23.472Z,6.80
2018-12-24T14:55:06.725Z,6.70
2018-12-24T14:57:48.048Z,6.70
2018-12-24T15:00:28.673Z,6.70
2018-12-24T15:03:09.651Z,6.70
2018-12-24T15:05:50.324Z,6.70
2018-12-24T15:08:31.166Z,6.70
2018-12-24T15:11:12.003Z,6.70
2018-12-24T15:13:53.959Z,6.70
2018-12-24T15:16:35.948Z,6.70
2018-12-24T15:19:17.307Z,6.60
2018-12-24T15:21:58.123Z,6.60
2018-12-24T15:24:38.762Z,6.60
2018-12-24T15:27:19.313Z,6.60
2018-12-24T15:29:59.927Z,6.60
2018-12-24T15:32:40.669Z,6.60
2018-12-24T15:35:21.792Z,6.60
2018-12-24T15:38:02.362Z,6.60
2018-12-24T15:40:43.279Z,6.60
2018-12-24T15:43:24.160Z,6.50
2018-12-24T15:46:04.950Z,6.60
2018-12-24T15:48:45.561Z,6.60
2018-12-24T15:51:26.441Z,6.60
2018-12-24T15:54:07.262Z,6.50
2018-12-24T15:56:48.308Z,6.50
2018-12-24T15:59:29.019Z,6.60
2018-12-24T16:02:10.239Z,6.50
2018-12-24T16:04:50.972Z,6.60
2018-12-24T16:10:15.091Z,6.60
2018-12-24T16:12:55.997Z,6.60
2018-12-24T16:15:24.876Z,6.60
2018-12-24T16:18:12.928Z,6.60
2018-12-24T16:21:00.955Z,6.60
2018-12-24T16:23:49.295Z,6.60
2018-12-24T16:26:37.339Z,6.60
2018-12-24T16:29:25.379Z,6.60
2018-12-24T16:32:13.457Z,6.60
2018-12-24T16:35:01.466Z,6.60
2018-12-24T16:37:49.620Z,6.70
2018-12-24T16:40:37.712Z,6.70
2018-12-24T16:43:25.758Z,6.70
2018-12-24T16:46:06.971Z,6.70
2018-12-24T16:48:47.399Z,6.80
2018-12-24T16:51:16.457Z,6.80
2018-12-24T16:54:04.639Z,6.80
2018-12-24T16:56:52.694Z,6.80
2018-12-24T16:59:40.821Z,6.70
2018-12-24T17:02:28.981Z,6.70
2018-12-24T17:05:17.131Z,6.70
2018-12-24T17:08:05.118Z,6.70
2018-12-24T17:10:53.251Z,6.60
2018-12-24T17:13:41.587Z,6.60
2018-12-24T17:16:29.698Z,6.60
2018-12-24T17:19:17.718Z,6.60
2018-12-24T17:22:05.847Z,6.60
2018-12-24T17:24:54.013Z,6.70
2018-12-24T17:27:42.051Z,6.70
2018-12-24T17:30:30.072Z,6.60
2018-12-24T17:32:59.160Z,6.60
2018-12-24T17:35:47.226Z,6.60
2018-12-24T17:38:35.365Z,6.50
2018-12-24T17:41:23.443Z,6.50
2018-12-24T17:44:11.579Z,6.50
2018-12-24T17:46:52.536Z,6.50
2018-12-24T17:49:32.935Z,6.40
2018-12-24T17:52:14.265Z,6.40
2018-12-24T17:54:55.144Z,6.40
2018-12-24T17:57:35.807Z,6.40
2018-12-24T18:00:16.655Z,6.40
2018-12-24T18:05:39.414Z,6.30
2018-12-24T18:08:20.218Z,6.30
2018-12-24T18:11:01.036Z,6.30
2018-12-24T18:13:42.079Z,6.30
2018-12-24T18:16:22.611Z,6.30
2018-12-24T18:19:03.590Z,6.20
2018-12-24T18:21:44.157Z,6.20
2018-12-24T18:24:25.121Z,6.10
2018-12-24T18:27:06.215Z,6.10
2018-12-24T18:29:46.617Z,6.10
2018-12-24T18:32:27.174Z,6.20
2018-12-24T18:35:08.000Z,6.10
2018-12-24T18:37:49.173Z,6.10
2018-12-24T18:43:12.091Z,6.00
2018-12-24T18:45:52.824Z,6.00
2018-12-24T18:48:33.588Z,5.90
2018-12-24T18:51:02.573Z,5.90
2018-12-24T18:53:50.726Z,5.80
2018-12-24T18:56:38.802Z,5.90
2018-12-24T18:59:26.803Z,5.90
2018-12-24T19:02:14.908Z,5.90
2018-12-24T19:05:03.042Z,5.90
2018-12-24T19:07:51.469Z,5.90
2018-12-24T19:10:39.514Z,6.00
2018-12-24T19:13:27.634Z,5.90
2018-12-24T19:16:15.668Z,5.90
2018-12-24T19:19:03.744Z,5.80
2018-12-24T19:21:52.153Z,5.80
2018-12-24T19:24:40.159Z,5.90
2018-12-24T19:27:28.184Z,5.80
2018-12-24T19:30:16.247Z,5.80
2018-12-24T19:33:04.406Z,5.80
2018-12-24T19:35:33.462Z,5.70
2018-12-24T19:38:21.499Z,5.70
2018-12-24T19:41:09.512Z,5.80
2018-12-24T19:43:57.522Z,5.70
2018-12-24T19:46:38.203Z,5.70
2018-12-24T19:49:19.156Z,5.70
2018-12-24T19:51:59.885Z,5.80
2018-12-24T19:54:40.718Z,5.70
2018-12-24T19:57:21.462Z,5.70
2018-12-24T20:00:02.327Z,5.70
2018-12-24T20:02:43.380Z,5.70
2018-12-24T20:05:24.081Z,5.70
2018-12-24T20:08:04.867Z,5.70
2018-12-24T20:10:45.504Z,5.70
2018-12-24T20:13:26.234Z,5.70
2018-12-24T20:16:07.071Z,5.70
2018-12-24T20:18:50.614Z,5.60
2018-12-24T20:21:31.048Z,5.70
2018-12-24T20:24:12.398Z,5.70
2018-12-24T20:29:35.244Z,5.60
2018-12-24T20:32:15.699Z,5.60
2018-12-24T20:34:56.868Z,5.60
2018-12-24T20:37:37.644Z,5.60
2018-12-24T20:40:18.443Z,5.60
2018-12-24T20:45:41.524Z,5.70
2018-12-24T20:48:22.278Z,5.70
2018-12-24T20:51:02.790Z,5.70
2018-12-24T20:53:43.392Z,5.70
2018-12-24T20:56:24.134Z,5.70
2018-12-24T21:01:46.997Z,5.90
2018-12-24T21:04:27.873Z,5.90
2018-12-24T21:07:08.258Z,5.80
2018-12-24T21:09:48.894Z,5.80
2018-12-24T21:12:29.461Z,5.80
2018-12-24T21:15:10.262Z,5.80
2018-12-24T21:17:50.587Z,5.70
2018-12-24T21:20:31.322Z,5.70
2018-12-24T21:23:12.454Z,5.70
2018-12-24T21:25:53.166Z,5.60
2018-12-24T21:28:33.763Z,5.70
2018-12-24T21:31:14.461Z,5.70
2018-12-24T21:33:55.049Z,5.70
2018-12-24T21:36:35.666Z,5.70
2018-12-24T21:39:16.427Z,5.70
2018-12-24T21:41:57.324Z,5.60
2018-12-24T21:44:38.219Z,5.60
2018-12-24T21:47:18.918Z,5.60
2018-12-24T21:49:59.672Z,5.60
2018-12-24T21:52:40.412Z,5.60
2018-12-24T21:55:24.191Z,5.60
2018-12-24T21:58:04.581Z,5.60
2018-12-24T22:00:45.273Z,5.50
2018-12-24T22:03:25.892Z,5.60
2018-12-24T22:06:06.457Z,5.60
2018-12-24T22:08:47.650Z,5.50
2018-12-24T22:11:16.648Z,5.50
2018-12-24T22:14:04.806Z,5.50
2018-12-24T22:16:52.898Z,5.50
2018-12-24T22:19:40.970Z,5.50
2018-12-24T22:22:29.247Z,5.50
2018-12-24T22:25:17.398Z,5.50
2018-12-24T22:28:05.429Z,5.50
2018-12-24T22:30:53.810Z,5.40
2018-12-24T22:33:41.899Z,5.40
2018-12-24T22:36:29.910Z,5.50
2018-12-24T22:39:17.926Z,5.40
2018-12-24T22:42:05.988Z,5.40
2018-12-24T22:44:54.020Z,5.40
2018-12-24T22:47:35.087Z,5.40
2018-12-24T22:50:15.715Z,5.40
2018-12-24T22:52:44.954Z,5.50
2018-12-24T22:55:32.962Z,5.40
2018-12-24T22:58:20.982Z,5.50
2018-12-24T23:01:09.075Z,5.50
2018-12-24T23:03:57.154Z,5.50
2018-12-24T23:06:45.222Z,5.50
2018-12-24T23:09:33.249Z,5.50
2018-12-24T23:12:21.258Z,5.60
2018-12-24T23:15:09.267Z,5.70
2018-12-24T23:17:57.359Z,5.60
2018-12-24T23:20:45.481Z,5.60
2018-12-24T23:23:33.476Z,5.60
2018-12-24T23:26:21.603Z,5.60
2018-12-24T23:29:09.615Z,5.60
2018-12-24T23:31:57.655Z,5.70
2018-12-24T23:34:45.712Z,5.60
2018-12-24T23:37:33.754Z,5.60
2018-12-24T23:40:21.831Z,5.60
2018-12-24T23:43:09.922Z,5.60
2018-12-24T23:45:58.011Z,5.60
2018-12-24T23:48:46.256Z,5.50
2018-12-24T23:51:34.343Z,5.60
2018-12-24T23:54:22.402Z,5.60
2018-12-24T23:57:10.414Z,5.60
2018-12-24T23:59:58.422Z,5.60
